Terminal Aerodrome Forecast
Issued by NWS

Home | Current Version | Previous Version | Text Only | Print | Product List | Glossary On
Versions: 1 2 3 4 5 6 7 8 9 10 11 12 13 14 15 16 17 18 19 20 21 22 23 24 25 26 27
000
FTUS46 KLOX 231723
TAFLAX
TAF
KLAX 231723Z 2318/2424 25008KT P6SM SCT200
     FM232000 27014KT P6SM SCT200
     FM240200 26008KT P6SM SCT200
     FM240600 VRB03KT P6SM SCT200
     FM241000 VRB03KT P6SM OVC010
     FM241700 27007KT P6SM SCT015
     FM242000 27014KT P6SM SCT200=

USA.gov is the U.S. government's official web portal to all federal, state and local government web resources and services.